createdAt,value
2023-04-22T00:00:59.827Z,7.43
2023-04-22T00:03:28.964Z,8.33
2023-04-22T00:05:57.420Z,10.10
2023-04-22T00:08:25.707Z,8.10
2023-04-22T00:10:53.568Z,8.67
2023-04-22T00:13:21.401Z,7.40
2023-04-22T00:15:51.276Z,7.73
2023-04-22T00:18:19.246Z,8.50
2023-04-22T00:20:47.106Z,7.53
2023-04-22T00:23:15.002Z,7.40
2023-04-22T00:25:42.893Z,7.87
2023-04-22T00:28:11.189Z,7.17
2023-04-22T00:30:39.098Z,6.53
2023-04-22T00:33:08.445Z,8.70
2023-04-22T00:35:36.511Z,7.63
2023-04-22T00:38:04.475Z,14.23
2023-04-22T00:40:32.487Z,14.43
2023-04-22T00:43:01.262Z,10.50
2023-04-22T00:45:29.563Z,9.60
2023-04-22T00:47:57.966Z,11.40
2023-04-22T00:50:27.530Z,9.27
2023-04-22T00:52:55.469Z,9.83
2023-04-22T00:55:23.578Z,12.37
2023-04-22T00:57:53.003Z,11.60
2023-04-22T01:00:27.021Z,10.17
2023-04-22T01:02:55.997Z,8.27
2023-04-22T01:05:25.054Z,7.90
2023-04-22T01:07:54.357Z,8.10
2023-04-22T01:10:22.326Z,8.10
2023-04-22T01:12:50.159Z,8.10
2023-04-22T01:15:18.235Z,7.60
2023-04-22T01:17:46.656Z,7.33
2023-04-22T01:20:14.606Z,7.37
2023-04-22T01:22:45.473Z,7.60
2023-04-22T01:25:14.894Z,7.50
2023-04-22T01:27:44.141Z,6.77
2023-04-22T01:30:12.983Z,7.13
2023-04-22T01:32:41.246Z,7.30
2023-04-22T01:35:10.006Z,7.70
2023-04-22T01:37:38.355Z,7.63
2023-04-22T01:40:07.693Z,7.43
2023-04-22T01:42:37.522Z,7.03
2023-04-22T01:45:06.136Z,7.07
2023-04-22T01:47:33.987Z,7.17
2023-04-22T01:50:01.878Z,6.87
2023-04-22T01:52:30.255Z,6.80
2023-04-22T01:54:59.531Z,7.97
2023-04-22T01:57:27.404Z,7.47
2023-04-22T01:59:58.432Z,7.07
2023-04-22T02:02:26.352Z,6.63
2023-04-22T02:04:54.348Z,6.03
2023-04-22T02:07:22.246Z,6.90
2023-04-22T02:09:51.741Z,6.30
2023-04-22T02:12:19.600Z,6.83
2023-04-22T02:14:47.462Z,6.93
2023-04-22T02:17:17.899Z,8.23
2023-04-22T02:19:45.767Z,6.47
2023-04-22T02:22:13.897Z,6.27
2023-04-22T02:24:43.070Z,6.03
2023-04-22T02:27:10.959Z,6.13
2023-04-22T02:29:39.019Z,7.13
2023-04-22T02:32:07.147Z,7.43
2023-04-22T02:34:36.542Z,7.33
2023-04-22T02:37:04.614Z,7.10
2023-04-22T02:39:32.514Z,7.27
2023-04-22T02:42:01.347Z,6.67
2023-04-22T02:44:29.229Z,6.00
2023-04-22T02:46:57.132Z,7.20
2023-04-22T02:49:24.989Z,6.57
2023-04-22T02:51:54.255Z,7.20
2023-04-22T02:54:22.171Z,7.47
2023-04-22T02:56:49.999Z,7.90
2023-04-22T02:59:17.875Z,6.80
2023-04-22T03:01:45.783Z,6.83
2023-04-22T03:04:14.341Z,6.70
2023-04-22T03:06:42.490Z,5.90
2023-04-22T03:09:11.863Z,6.20
2023-04-22T03:11:39.872Z,6.73
2023-04-22T03:14:07.735Z,6.17
2023-04-22T03:16:35.647Z,7.03
2023-04-22T03:19:03.765Z,6.87
2023-04-22T03:21:32.300Z,7.00
2023-04-22T03:24:00.727Z,6.67
2023-04-22T03:26:29.953Z,6.80
2023-04-22T03:28:57.806Z,7.07
2023-04-22T03:31:25.805Z,6.27
2023-04-22T03:33:53.643Z,7.07
2023-04-22T03:36:21.572Z,7.30
2023-04-22T03:38:49.911Z,6.97
2023-04-22T03:41:17.743Z,8.00
2023-04-22T03:43:46.993Z,7.67
2023-04-22T03:46:14.853Z,7.67
2023-04-22T03:48:42.724Z,6.93
2023-04-22T03:51:10.591Z,8.10
2023-04-22T03:53:38.478Z,7.70
2023-04-22T03:56:06.635Z,9.10
2023-04-22T03:58:34.541Z,8.87
2023-04-22T04:01:03.764Z,8.57
2023-04-22T04:03:31.774Z,9.47
2023-04-22T04:06:00.112Z,8.33
2023-04-22T04:08:28.140Z,8.53
2023-04-22T04:10:56.081Z,9.07
2023-04-22T04:13:23.971Z,7.97
2023-04-22T04:15:52.539Z,8.37
2023-04-22T04:18:21.810Z,8.27
2023-04-22T04:20:49.802Z,8.40
2023-04-22T04:23:18.631Z,8.00
2023-04-22T04:25:46.665Z,8.03
2023-04-22T04:28:15.532Z,7.53
2023-04-22T04:30:43.408Z,7.93
2023-04-22T04:33:12.363Z,8.07
2023-04-22T04:35:43.332Z,7.80
2023-04-22T04:38:11.978Z,8.13
2023-04-22T04:40:39.813Z,7.97
2023-04-22T04:43:08.676Z,7.10
2023-04-22T04:45:37.808Z,7.70
2023-04-22T04:48:07.132Z,7.63
2023-04-22T04:50:35.365Z,7.30
2023-04-22T04:53:04.725Z,6.27
2023-04-22T04:55:32.742Z,6.77
2023-04-22T04:58:00.785Z,6.70
2023-04-22T05:00:28.808Z,6.83
2023-04-22T05:02:56.792Z,7.23
2023-04-22T05:05:24.706Z,6.77
2023-04-22T05:07:53.848Z,7.00
2023-04-22T05:10:23.216Z,6.47
2023-04-22T05:12:51.279Z,6.83
2023-04-22T05:15:19.268Z,8.10
2023-04-22T05:17:47.142Z,7.77
2023-04-22T05:20:15.116Z,7.10
2023-04-22T05:22:44.882Z,7.90
2023-04-22T05:25:12.814Z,7.37
2023-04-22T05:27:42.364Z,7.53
2023-04-22T05:30:11.218Z,7.87
2023-04-22T05:32:39.130Z,7.90
2023-04-22T05:35:07.929Z,7.10
2023-04-22T05:37:36.054Z,7.03
2023-04-22T05:40:04.200Z,5.90
2023-04-22T05:42:32.031Z,6.37
2023-04-22T05:45:01.245Z,6.13
2023-04-22T05:47:29.166Z,6.20
2023-04-22T05:49:57.176Z,5.20
2023-04-22T05:52:25.037Z,5.80
2023-04-22T05:54:52.903Z,5.30
2023-04-22T05:57:20.851Z,5.50
2023-04-22T05:59:48.670Z,5.33
2023-04-22T06:02:18.192Z,5.50
2023-04-22T06:04:46.416Z,5.50
2023-04-22T06:07:14.591Z,5.33
2023-04-22T06:09:42.673Z,5.00
2023-04-22T06:12:11.336Z,5.13
2023-04-22T06:14:39.309Z,5.13
2023-04-22T06:17:07.133Z,5.10
2023-04-22T06:19:36.407Z,4.67
2023-04-22T06:22:04.319Z,5.10
2023-04-22T06:24:32.198Z,4.90
2023-04-22T06:27:00.058Z,4.70
2023-04-22T06:29:27.882Z,4.60
2023-04-22T06:31:56.549Z,4.77
2023-04-22T06:34:24.702Z,4.70
2023-04-22T06:36:54.761Z,4.80
2023-04-22T06:39:22.697Z,5.13
2023-04-22T06:41:50.533Z,4.97
2023-04-22T06:44:18.381Z,5.10
2023-04-22T06:46:46.657Z,5.10
2023-04-22T06:49:14.693Z,4.87
2023-04-22T06:51:42.537Z,5.00
2023-04-22T06:54:11.789Z,5.03
2023-04-22T06:56:39.666Z,5.00
2023-04-22T06:59:08.060Z,4.73
2023-04-22T07:01:35.959Z,5.20
2023-04-22T07:04:03.827Z,5.00
2023-04-22T07:06:31.794Z,4.63
2023-04-22T07:08:59.654Z,5.00
2023-04-22T07:11:28.914Z,5.00
2023-04-22T07:13:56.785Z,4.90
2023-04-22T07:16:24.778Z,4.80
2023-04-22T07:18:52.653Z,5.53
2023-04-22T07:21:20.741Z,5.03
2023-04-22T07:23:48.781Z,4.50
2023-04-22T07:26:16.645Z,4.73
2023-04-22T07:28:46.081Z,5.30
2023-04-22T07:31:13.933Z,4.50
2023-04-22T07:33:41.809Z,4.97
2023-04-22T07:36:09.802Z,4.28
2023-04-22T07:38:37.670Z,4.55
2023-04-22T07:41:05.673Z,4.70
2023-04-22T07:43:33.583Z,4.90
2023-04-22T07:46:02.874Z,4.78
2023-04-22T07:48:30.850Z,4.40
2023-04-22T07:50:58.703Z,3.97
2023-04-22T07:53:26.539Z,4.32
2023-04-22T07:55:54.390Z,4.30
2023-04-22T07:58:22.229Z,4.50
2023-04-22T08:00:50.224Z,5.20
2023-04-22T08:03:19.596Z,6.57
2023-04-22T08:05:47.597Z,4.45
2023-04-22T08:08:15.772Z,5.10
2023-04-22T08:10:43.786Z,4.72
2023-04-22T08:13:11.651Z,5.15
2023-04-22T08:15:40.090Z,4.80
2023-04-22T08:18:08.051Z,5.20
2023-04-22T08:20:37.361Z,4.50
2023-04-22T08:23:07.046Z,4.93
2023-04-22T08:25:36.115Z,5.07
2023-04-22T08:28:04.247Z,5.10
2023-04-22T08:30:32.316Z,5.25
2023-04-22T08:33:00.232Z,6.43
2023-04-22T08:35:28.355Z,5.20
2023-04-22T08:37:57.589Z,4.82
2023-04-22T08:40:25.445Z,4.70
2023-04-22T08:42:54.014Z,4.32
2023-04-22T08:45:22.382Z,4.95
2023-04-22T08:47:51.188Z,5.95
2023-04-22T08:50:22.028Z,4.38
2023-04-22T08:52:50.666Z,4.78
2023-04-22T08:55:20.527Z,4.43
2023-04-22T08:57:49.717Z,4.70
2023-04-22T09:00:19.081Z,4.20
2023-04-22T09:02:48.435Z,4.10
2023-04-22T09:05:17.100Z,4.00
2023-04-22T09:07:46.023Z,3.75
2023-04-22T09:10:13.950Z,4.10
2023-04-22T09:12:44.043Z,3.90
2023-04-22T09:15:13.298Z,3.30
2023-04-22T09:17:43.340Z,2.88
2023-04-22T09:20:12.275Z,3.53
2023-04-22T09:22:42.402Z,2.83
2023-04-22T09:25:17.467Z,2.85
2023-04-22T09:27:50.514Z,2.70
2023-04-22T09:30:20.336Z,2.58
2023-04-22T09:32:58.901Z,2.70
2023-04-22T09:35:31.121Z,2.75
2023-04-22T09:38:00.801Z,3.08
2023-04-22T09:40:29.721Z,2.72
2023-04-22T09:43:01.186Z,3.10
2023-04-22T09:45:32.178Z,3.00
2023-04-22T09:48:04.181Z,2.80
2023-04-22T09:50:32.105Z,3.10
2023-04-22T09:53:03.060Z,2.70
2023-04-22T09:55:33.077Z,3.13
2023-04-22T09:58:09.068Z,3.10
2023-04-22T10:00:38.933Z,3.08
2023-04-22T10:03:09.685Z,2.83
2023-04-22T10:05:38.622Z,3.20
2023-04-22T10:08:07.767Z,2.65
2023-04-22T10:10:36.451Z,3.25
2023-04-22T10:13:06.788Z,2.60
2023-04-22T10:15:37.592Z,3.20
2023-04-22T10:18:08.424Z,2.90
2023-04-22T10:20:38.493Z,2.63
2023-04-22T10:23:07.711Z,3.10
2023-04-22T10:25:35.719Z,2.90
2023-04-22T10:28:06.266Z,2.70
2023-04-22T10:30:42.661Z,2.70
2023-04-22T10:33:39.480Z,2.80
2023-04-22T10:36:09.420Z,2.70
2023-04-22T10:38:37.880Z,2.45
2023-04-22T10:41:06.217Z,2.50
2023-04-22T10:43:46.108Z,2.70
2023-04-22T10:46:52.162Z,2.75
2023-04-22T10:49:21.816Z,2.60
2023-04-22T10:51:51.297Z,2.60
2023-04-22T10:54:56.481Z,2.55
2023-04-22T10:57:31.195Z,2.40
2023-04-22T11:00:01.374Z,2.65
2023-04-22T11:02:29.408Z,2.60
2023-04-22T11:05:23.934Z,2.50
2023-04-22T11:07:55.933Z,2.53
2023-04-22T11:10:35.851Z,2.60
2023-04-22T11:13:07.099Z,2.42
2023-04-22T11:15:38.890Z,2.75
2023-04-22T11:18:11.891Z,2.55
2023-04-22T11:20:40.056Z,2.70
2023-04-22T11:23:08.042Z,2.22
2023-04-22T11:25:36.089Z,2.42
2023-04-22T11:28:04.592Z,2.65
2023-04-22T11:30:32.776Z,2.30
2023-04-22T11:33:02.048Z,2.72
2023-04-22T11:35:32.146Z,2.83
2023-04-22T11:38:01.449Z,2.90
2023-04-22T11:40:32.823Z,2.28
2023-04-22T11:43:04.952Z,2.22
2023-04-22T11:45:34.472Z,2.60
2023-04-22T11:48:06.134Z,2.78
2023-04-22T11:50:35.723Z,2.20
2023-04-22T11:53:05.260Z,2.42
2023-04-22T11:55:35.017Z,2.47
2023-04-22T11:58:07.820Z,2.40
2023-04-22T12:00:37.926Z,2.20
2023-04-22T12:03:09.734Z,2.05
2023-04-22T12:05:40.378Z,2.10
2023-04-22T12:08:10.807Z,2.00
2023-04-22T12:10:44.040Z,1.88
2023-04-22T12:13:18.752Z,1.80
2023-04-22T12:15:47.013Z,1.77
2023-04-22T12:18:16.242Z,1.77
2023-04-22T12:20:44.141Z,1.70
2023-04-22T12:23:15.607Z,1.90
2023-04-22T12:25:44.574Z,1.75
2023-04-22T12:28:13.406Z,1.95
2023-04-22T12:30:41.348Z,1.60
2023-04-22T12:33:10.226Z,1.50
2023-04-22T12:35:39.549Z,1.60
2023-04-22T12:38:07.451Z,1.55
2023-04-22T12:40:35.289Z,1.70
2023-04-22T12:43:06.067Z,1.63
2023-04-22T12:45:34.117Z,1.40
2023-04-22T12:48:02.159Z,1.50
2023-04-22T12:50:30.116Z,1.20
2023-04-22T12:52:59.563Z,1.00
2023-04-22T12:55:27.805Z,1.13
2023-04-22T12:57:56.731Z,1.45
2023-04-22T13:00:25.457Z,1.60
2023-04-22T13:02:53.799Z,1.35
2023-04-22T13:05:21.875Z,1.30
2023-04-22T13:07:56.383Z,1.50
2023-04-22T13:10:35.948Z,1.70
2023-04-22T13:13:15.962Z,1.92
2023-04-22T13:15:45.331Z,1.40
2023-04-22T13:18:13.244Z,1.30
2023-04-22T13:20:42.548Z,1.40
2023-04-22T13:23:10.812Z,1.40
2023-04-22T13:25:40.260Z,1.50
2023-04-22T13:28:08.157Z,1.80
2023-04-22T13:30:36.020Z,1.95
2023-04-22T13:33:03.936Z,1.70
2023-04-22T13:35:32.184Z,1.35
2023-04-22T13:38:00.119Z,1.67
2023-04-22T13:40:28.071Z,1.40
2023-04-22T13:42:57.356Z,1.77
2023-04-22T13:45:25.677Z,1.40
2023-04-22T13:47:54.737Z,1.55
2023-04-22T13:50:23.647Z,1.80
2023-04-22T13:52:51.630Z,1.70
2023-04-22T13:55:19.634Z,1.90
2023-04-22T13:57:47.737Z,1.67
2023-04-22T14:00:17.820Z,1.60
2023-04-22T14:02:46.091Z,1.40
2023-04-22T14:05:14.173Z,1.73
2023-04-22T14:07:42.088Z,1.65
2023-04-22T14:10:12.171Z,1.70
2023-04-22T14:12:40.232Z,1.45
2023-04-22T14:15:11.003Z,1.65
2023-04-22T14:17:40.636Z,1.38
2023-04-22T14:20:10.848Z,1.50
2023-04-22T14:22:38.931Z,1.60
2023-04-22T14:25:08.193Z,1.73
2023-04-22T14:27:36.059Z,1.85
2023-04-22T14:30:04.941Z,1.50
2023-04-22T14:32:33.225Z,1.60
2023-04-22T14:35:02.532Z,1.55
2023-04-22T14:37:31.748Z,1.33
2023-04-22T14:39:59.725Z,1.70
2023-04-22T14:42:28.282Z,1.60
2023-04-22T14:44:56.168Z,1.67
2023-04-22T14:47:24.491Z,1.38
2023-04-22T14:49:52.460Z,1.48
2023-04-22T14:52:21.766Z,1.45
2023-04-22T14:54:51.834Z,1.40
2023-04-22T14:57:20.010Z,1.42
2023-04-22T14:59:47.921Z,1.63
2023-04-22T15:02:16.838Z,1.45
2023-04-22T15:04:44.922Z,1.63
2023-04-22T15:07:12.807Z,1.25
2023-04-22T15:09:42.404Z,1.65
2023-04-22T15:12:10.456Z,1.20
2023-04-22T15:14:38.643Z,1.77
2023-04-22T15:17:07.389Z,1.52
2023-04-22T15:19:35.326Z,1.88
2023-04-22T15:22:03.448Z,1.73
2023-04-22T15:24:31.490Z,1.80
2023-04-22T15:27:01.309Z,2.00
2023-04-22T15:29:29.441Z,1.77
2023-04-22T15:31:57.923Z,1.90
2023-04-22T15:34:26.188Z,1.50
2023-04-22T15:36:54.383Z,1.42
2023-04-22T15:39:22.363Z,1.58
2023-04-22T15:41:50.212Z,1.70
2023-04-22T15:44:19.549Z,1.73
2023-04-22T15:46:47.567Z,1.83
2023-04-22T15:49:16.681Z,1.80
2023-04-22T15:51:44.579Z,1.80
2023-04-22T15:54:13.349Z,1.67
2023-04-22T15:56:41.435Z,1.92
2023-04-22T15:59:09.313Z,1.90
2023-04-22T16:01:40.681Z,1.60
2023-04-22T16:04:08.949Z,1.88
2023-04-22T16:06:38.137Z,2.28
2023-04-22T16:09:06.095Z,1.88
2023-04-22T16:11:34.062Z,1.90
2023-04-22T16:14:01.920Z,1.40
2023-04-22T16:16:29.895Z,2.40
2023-04-22T16:18:59.407Z,1.60
2023-04-22T16:21:28.719Z,1.83
2023-04-22T16:23:56.578Z,1.70
2023-04-22T16:26:24.544Z,1.75
2023-04-22T16:28:52.380Z,1.30
2023-04-22T16:31:22.868Z,1.80
2023-04-22T16:33:51.318Z,1.55
2023-04-22T16:36:20.534Z,1.57
2023-04-22T16:38:48.414Z,1.10
2023-04-22T16:41:16.285Z,1.53
2023-04-22T16:43:44.279Z,1.60
2023-04-22T16:46:12.143Z,2.17
2023-04-22T16:48:40.039Z,2.20
2023-04-22T16:51:07.910Z,1.93
2023-04-22T16:53:37.207Z,1.85
2023-04-22T16:56:05.913Z,1.93
2023-04-22T16:58:33.777Z,1.87
2023-04-22T17:01:01.655Z,1.90
2023-04-22T17:03:29.634Z,1.90
2023-04-22T17:05:57.573Z,2.35
2023-04-22T17:08:25.434Z,2.30
2023-04-22T17:10:54.732Z,2.50
2023-04-22T17:13:22.615Z,2.97
2023-04-22T17:15:50.624Z,2.20
2023-04-22T17:18:18.479Z,2.40
2023-04-22T17:20:46.500Z,2.30
2023-04-22T17:23:14.379Z,2.40
2023-04-22T17:25:42.222Z,2.40
2023-04-22T17:28:12.113Z,2.47
2023-04-22T17:30:39.984Z,2.60
2023-04-22T17:33:08.111Z,2.50
2023-04-22T17:35:35.980Z,2.53
2023-04-22T17:38:03.950Z,2.80
2023-04-22T17:40:32.120Z,2.80
2023-04-22T17:42:59.992Z,3.00
2023-04-22T17:45:29.321Z,3.40
2023-04-22T17:47:57.190Z,4.50
2023-04-22T17:50:25.278Z,4.23
2023-04-22T17:52:53.213Z,5.43
2023-04-22T17:55:21.397Z,7.53
2023-04-22T17:57:49.262Z,5.37
2023-04-22T18:00:18.140Z,4.63
2023-04-22T18:02:47.825Z,4.20
2023-04-22T18:05:15.776Z,3.70
2023-04-22T18:07:43.656Z,4.00
2023-04-22T18:10:12.758Z,3.90
2023-04-22T18:12:41.390Z,3.70
2023-04-22T18:15:09.802Z,3.87
2023-04-22T18:17:37.774Z,4.43
2023-04-22T18:20:17.624Z,3.30
2023-04-22T18:22:46.681Z,3.97
2023-04-22T18:25:14.588Z,4.50
2023-04-22T18:27:42.439Z,4.37
2023-04-22T18:30:11.002Z,5.90
2023-04-22T18:32:39.402Z,4.30
2023-04-22T18:35:09.788Z,5.40
2023-04-22T18:37:37.691Z,4.70
2023-04-22T18:40:07.124Z,4.80
2023-04-22T18:42:35.017Z,4.70
2023-04-22T18:45:04.579Z,5.23
2023-04-22T18:47:33.046Z,4.60
2023-04-22T18:50:01.307Z,4.03
2023-04-22T18:52:30.698Z,3.87
2023-04-22T18:54:58.575Z,4.47
2023-04-22T18:57:26.478Z,5.17
2023-04-22T18:59:55.036Z,5.20
2023-04-22T19:02:23.332Z,4.30
2023-04-22T19:04:51.627Z,3.70
2023-04-22T19:07:20.001Z,3.90
2023-04-22T19:09:49.298Z,4.10
2023-04-22T19:12:19.478Z,3.70
2023-04-22T19:14:48.477Z,3.93
2023-04-22T19:17:16.580Z,4.87
2023-04-22T19:19:45.450Z,4.53
2023-04-22T19:22:13.918Z,5.00
2023-04-22T19:24:42.204Z,4.50
2023-04-22T19:27:12.621Z,4.77
2023-04-22T19:29:41.653Z,5.17
2023-04-22T19:32:12.673Z,5.10
2023-04-22T19:34:40.811Z,5.53
2023-04-22T19:37:08.701Z,5.80
2023-04-22T19:39:36.719Z,5.77
2023-04-22T19:42:04.732Z,5.90
2023-04-22T19:44:34.095Z,6.20
2023-04-22T19:47:01.995Z,5.83
2023-04-22T19:49:32.589Z,6.40
2023-04-22T19:52:02.826Z,6.23
2023-04-22T19:54:31.071Z,6.90
2023-04-22T19:56:59.641Z,6.90
2023-04-22T19:59:31.134Z,6.73
2023-04-22T20:02:01.045Z,6.77
2023-04-22T20:04:29.669Z,5.47
2023-04-22T20:07:00.771Z,5.40
2023-04-22T20:09:32.913Z,5.10
2023-04-22T20:12:01.266Z,5.10
2023-04-22T20:14:29.678Z,5.77
2023-04-22T20:16:57.850Z,5.07
2023-04-22T20:19:28.401Z,5.47
2023-04-22T20:21:58.701Z,5.20
2023-04-22T20:24:28.781Z,5.60
2023-04-22T20:26:56.906Z,5.50
2023-04-22T20:29:25.613Z,6.00
2023-04-22T20:31:55.696Z,5.57
2023-04-22T20:34:24.054Z,5.20
2023-04-22T20:36:54.995Z,5.30
2023-04-22T20:39:25.094Z,5.77
2023-04-22T20:41:55.693Z,5.93
2023-04-22T20:44:23.562Z,5.67
2023-04-22T20:46:52.058Z,5.50
2023-04-22T20:49:20.028Z,5.43
2023-04-22T20:51:48.351Z,5.40
2023-04-22T20:54:28.556Z,5.00
2023-04-22T20:56:57.860Z,5.93
2023-04-22T20:59:25.773Z,7.50
2023-04-22T21:01:54.774Z,7.80
2023-04-22T21:04:24.018Z,8.97
2023-04-22T21:06:52.364Z,10.13
2023-04-22T21:09:24.760Z,8.07
2023-04-22T21:11:53.391Z,8.90
2023-04-22T21:14:22.269Z,8.10
2023-04-22T21:16:57.311Z,8.53
2023-04-22T21:19:25.715Z,8.37
2023-04-22T21:21:55.504Z,7.67
2023-04-22T21:24:25.174Z,7.60
2023-04-22T21:26:53.901Z,8.10
2023-04-22T21:29:22.397Z,6.60
2023-04-22T21:32:05.027Z,5.10
2023-04-22T21:34:36.456Z,5.03
2023-04-22T21:37:05.595Z,4.30
2023-04-22T21:39:35.336Z,4.60
2023-04-22T21:42:07.536Z,4.40
2023-04-22T21:44:36.762Z,4.70
2023-04-22T21:47:05.480Z,4.00
2023-04-22T21:49:33.370Z,4.27
2023-04-22T21:52:01.281Z,4.40
2023-04-22T21:54:29.153Z,4.60
2023-04-22T21:56:58.769Z,4.77
2023-04-22T21:59:26.646Z,4.40
2023-04-22T22:01:54.631Z,5.03
2023-04-22T22:04:22.844Z,6.07
2023-04-22T22:06:50.931Z,6.20
2023-04-22T22:09:18.885Z,5.27
2023-04-22T22:11:46.771Z,5.57
2023-04-22T22:14:16.160Z,5.23
2023-04-22T22:16:44.495Z,5.43
2023-04-22T22:19:12.526Z,5.70
2023-04-22T22:21:40.547Z,5.00
2023-04-22T22:24:09.630Z,4.47
2023-04-22T22:26:40.472Z,4.60
2023-04-22T22:29:15.337Z,5.47
2023-04-22T22:31:45.249Z,5.27
2023-04-22T22:34:13.176Z,6.03
2023-04-22T22:36:41.305Z,7.10
2023-04-22T22:39:10.307Z,8.77
2023-04-22T22:41:38.223Z,8.60
2023-04-22T22:44:06.083Z,7.53
2023-04-22T22:46:34.101Z,6.83
2023-04-22T22:49:03.553Z,6.90
2023-04-22T22:51:32.715Z,6.30
2023-04-22T22:54:00.818Z,6.23
2023-04-22T22:56:28.804Z,5.83
2023-04-22T22:58:56.658Z,6.00
2023-04-22T23:01:24.619Z,5.67
2023-04-22T23:03:52.769Z,6.10
2023-04-22T23:06:22.231Z,5.37
2023-04-22T23:08:50.125Z,5.70
2023-04-22T23:11:17.964Z,5.60
2023-04-22T23:13:46.405Z,5.63
2023-04-22T23:16:14.397Z,6.17
2023-04-22T23:18:42.757Z,5.50
2023-04-22T23:21:12.471Z,5.50
2023-04-22T23:23:42.226Z,7.33
2023-04-22T23:26:10.823Z,7.43
2023-04-22T23:28:39.153Z,7.70
2023-04-22T23:31:08.203Z,8.20
2023-04-22T23:33:40.505Z,7.63
2023-04-22T23:36:11.343Z,6.00
2023-04-22T23:38:39.416Z,6.43
2023-04-22T23:41:08.639Z,6.17
2023-04-22T23:43:36.533Z,6.30
2023-04-22T23:46:04.514Z,7.73
2023-04-22T23:48:32.526Z,7.70
2023-04-22T23:51:00.584Z,6.87
2023-04-22T23:53:28.482Z,6.30
2023-04-22T23:55:56.886Z,6.13
2023-04-22T23:58:26.564Z,6.03
